Nearby METAR Reports


KANE - Minneapls/Blaine, Minnesota, USA
Distance from station: ESE 8mi, 13km
Updated: 07/20/2019 8:45am
Thunderstorm rain, Overcast
Thunderstorm rain, Overcast
 Wind from SSW
Wind: SSW 14 mph , 22 km/h, Gust: 29 mph , 46 km/h
Temperature: 68°F , 20°C
Dew Point: 61°F , 16°C
Humidity: 78%
Barometer: 30.01 inHg , 1016.3 hPa
Summary: Thunderstorm Rain
Clouds: Overcast
Visibility: 5 miles , 8 km
Cloud details: Overcast 2000 ft
2019/07/20 13:45 KANE 201345Z 21012G25KT 5SM TSRA OVC020 20/16 A3001 RMK LTGICCG OHD TS OHD MOV E
KMIC - Mnpls/Crystal, Minnesota, USA
Distance from station: S 8mi, 14km
Updated: 07/20/2019 8:53am
Heavy thunderstorm, Rain, Mist, Overcast
Heavy thunderstorm, Rain, Mist, Overcast
 Wind from NE
Wind: NE 10 mph , 17 km/h
Temperature: 63°F , 17°C
Dew Point: 61°F , 16°C
Humidity: 94%
Barometer: 29.93 inHg , 1013.5 hPa
Summary: Heavy thunderstorm, Rain, Mist
Clouds: Overcast
Visibility: 1 1/2 miles , 2.4 km
Cloud details: Mostly cloudy 2500 ft
Mostly cloudy 3600 ft
Overcast 7000 ft
2019/07/20 13:53 KMIC 201353Z 05009KT 1 1/2SM +TSRA BR BKN025 BKN036 OVC070 17/16 A2993 RMK AO2 PK WND 22059/1330 LTG DSNT N-SE RAB1257 TSB1256 SLP130 P0067 T01670156
 
KMSP - Minneapolis, Minnesota, USA
Distance from station: SSE 22mi, 35km
Updated: 07/20/2019 8:53am
Nearby thunderstorm, Heavy rain, Mist, Overcast
Nearby thunderstorm, Heavy rain, Mist, Overcast
 Wind from NE
Wind: NE 23 mph , 37 km/h, Gust: 29 mph , 46 km/h
Temperature: 63°F , 17°C
Dew Point: 61°F , 16°C
Humidity: 94%
Barometer: 29.92 inHg , 1013.2 hPa
Summary: Nearby thunderstorm, Heavy rain, Mist
Clouds: Overcast
Visibility: 3 miles , 5 km
Cloud details: Mostly cloudy 4100 ft
Mostly cloudy 6000 ft
Overcast 7000 ft
2019/07/20 13:53 KMSP 201353Z 04020G25KT 3SM VCTS +RA BR BKN041 BKN060CB OVC070 17/16 A2992 RMK AO2 PK WND 24030/1325 SFC VIS 4 LTG DSNT ALQDS RAB09 TSB24E51 SLP127 VCTS ALQDS MOV NE P0024 T01720156
KSTP - St. Paul, Minnesota, USA
Distance from station: SE 23mi, 38km
Updated: 07/20/2019 8:53am
Heavy thunderstorm, Rain, Mist, Overcast
Heavy thunderstorm, Rain, Mist, Overcast
 Wind from N
Wind: N 7 mph , 11 km/h, Gust: 18 mph , 30 km/h
Temperature: 63°F , 17°C
Dew Point: 61°F , 16°C
Humidity: 94%
Barometer: 30.01 inHg , 1016.3 hPa
Summary: Heavy thunderstorm, Rain, Mist
Clouds: Overcast
Visibility: 1 1/2 miles , 2.4 km
Cloud details: Mostly cloudy 3100 ft
Mostly cloudy 3900 ft
Overcast 6500 ft
2019/07/20 13:53 KSTP 201353Z 36006G16KT 1 1/2SM +TSRA BR BKN031 BKN039 OVC065 17/16 A3001 RMK AO2 PK WND 23037/1331 LTG DSNT ALQDS RAB12 TSB09 SLP158 P0053 T01720156
 
KCFE - Buffalo Muni, Minnesota, USA
Distance from station: W 24mi, 38km
Updated: 07/20/2019 8:37am

 
Visibility: 10 miles , 16 km
2019/07/20 13:37 KCFE 201337Z 10SM -VCTSRA BKN055 BKN070 OVC080 18/14 A2990 RMK AO2 LTG DSNT ALQS P0005 T01790144
KFCM - Mnpls/Flying Cld, Minnesota, USA
Distance from station: S 25mi, 40km
Updated: 07/20/2019 8:53am
Nearby thunderstorm, Light rain, Partly cloudy
Nearby thunderstorm, Light rain, Partly cloudy
 Wind from NNE
Wind: NNE 23 mph , 37 km/h, Gust: 38 mph , 61 km/h
Temperature: 63°F , 17°C
Dew Point: 59°F , 15°C
Humidity: 88%
Barometer: 29.79 inHg , 1008.8 hPa
Summary: Nearby thunderstorm, Light rain
Clouds: Partly cloudy
Visibility: 10 miles , 16 km
Cloud details: Few Clouds 10000 ft
Partly cloudy 12000 ft
2019/07/20 13:53 KFCM 201353Z 03020G33KT 10SM VCTS -RA FEW100 SCT120 17/15 A2979 RMK AO2 PK WND 04033/1350 LTG DSNT N-E RAB08 TSB03E31 SLP083 P0023 T01720150
 
KCBG - Cambridge Muni, Minnesota, USA
Distance from station: N 27mi, 43km
Updated: 07/20/2019 8:36am
Partly cloudy
Partly cloudy
 Wind from NNW
Wind: NNW 3 mph , 6 km/h
Temperature: 66°F , 19°C
Dew Point: 55°F , 13°C
Humidity: 68%
Barometer: 29.88 inHg , 1011.9 hPa
Clouds: Partly cloudy
Visibility: 10 miles , 16 km
Cloud details: Partly cloudy 9500 ft
2019/07/20 13:36 KCBG 201336Z AUTO 33003KT 10SM SCT095 19/13 A2988 RMK AO2 LTG DSNT SE THRU SW
KPNM - Princeton Muni, Minnesota, USA
Distance from station: NNW 27mi, 44km
Updated: 07/20/2019 8:35am
Partly cloudy
Partly cloudy
 Wind from calm
Wind: Calm
Temperature: 66°F , 19°C
Dew Point: 55°F , 13°C
Humidity: 68%
Barometer: 29.89 inHg , 1012.2 hPa
Clouds: Partly cloudy
Visibility: 10 miles , 16 km
Cloud details: Partly cloudy 9500 ft
2019/07/20 13:35 KPNM 201335Z AUTO 00000KT 10SM SCT095 19/13 A2989 RMK AO2 LTG DSNT SE THRU W
 
K21D - Lake Elmo, Minnesota, USA
Distance from station: ESE 28mi, 46km
Updated: 07/20/2019 8:36am
Thunderstorm Rain
Thunderstorm Rain
 Wind from SW
Wind: SW 21 mph , 33 km/h, Gust: 24 mph , 39 km/h
Barometer: 30.01 inHg , 1016.3 hPa
Summary: Thunderstorm Rain
Visibility: 10 miles , 16 km
2019/07/20 13:36 K21D 201336Z AUTO 22018G21KT 10SM TSRA A3001 RMK AO2 LTG DSNT ALQS P0001
KSGS - South St Paul, Minnesota, USA
Distance from station: SE 28mi, 46km
Updated: 07/20/2019 8:35am
Thunderstorm rain, Overcast
Thunderstorm rain, Overcast
 Wind from W
Wind: W 17 mph , 28 km/h, Gust: 26 mph , 43 km/h
Temperature: 68°F , 20°C
Dew Point: 64°F , 18°C
Humidity: 88%
Barometer: 30.02 inHg , 1016.6 hPa
Summary: Thunderstorm Rain
Clouds: Overcast
Visibility: 5 miles , 8 km
Cloud details: Partly cloudy 4400 ft
Overcast 6500 ft
2019/07/20 13:35 KSGS 201335Z AUTO 27015G23KT 5SM TSRA SCT044 OVC065 20/18 A3002 RMK AO2 LTG DSNT ALQDS P0008 T02020181 P0008
 
KMGG - Maple Lake, Minnesota, USA
Distance from station: W 30mi, 48km
Updated: 07/20/2019 8:39am
Light rain
Light rain
 Wind from E
Wind: E 3 mph , 6 km/h
Temperature: 66°F , 19°C
Dew Point: 63°F , 17°C
Humidity: 88%
Barometer: 29.89 inHg , 1012.2 hPa
Summary: Light rain
Visibility: 7 miles , 11 km
2019/07/20 13:39 KMGG 201339Z AUTO 10003KT 7SM -RA 19/17 A2989 RMK AO2 LTG DSNT ALQDS T01870169
KOEO - Osceola, Wisconsin, USA
Distance from station: ENE 34mi, 55km
Updated: 07/20/2019 8:35am
Light rain, Mostly cloudy
Light rain, Mostly cloudy
 Wind from N
Wind: N 6 mph , 9 km/h
Temperature: 66°F , 19°C
Dew Point: 59°F , 15°C
Humidity: 78%
Barometer: 29.89 inHg , 1012.2 hPa
Summary: Light rain
Clouds: Mostly cloudy
Visibility: 10 miles , 16 km
Cloud details: Mostly cloudy 9000 ft
2019/07/20 13:35 KOEO 201335Z AUTO 36005KT 10SM -RA BKN090 19/15 A2989 RMK AO2 T01870150
 
KLVN - Mnpls/Airlake, Minnesota, USA
Distance from station: S 39mi, 63km
Updated: 07/20/2019 7:55am
Thunderstorm, Overcast
Thunderstorm, Overcast
 Wind from NE
Wind: NE 7 mph , 11 km/h
Temperature: 73°F , 23°C
Dew Point: 64°F , 18°C
Humidity: 74%
Barometer: 29.85 inHg , 1010.8 hPa
Summary: Thunderstorm
Clouds: Overcast
Visibility: 10 miles , 16 km
Cloud details: Overcast 5000 ft
2019/07/20 12:55 KLVN 201255Z AUTO 04006KT 10SM TS OVC050 23/18 A2985 RMK AO2 LTG DSNT ALQD
KRNH - New Richmond Mun, Wisconsin, USA
Distance from station: E 41mi, 66km
Updated: 07/20/2019 8:35am
Light rain, Mostly cloudy
Light rain, Mostly cloudy
 Wind from NNE
Wind: NNE 8 mph , 13 km/h
Temperature: 66°F , 19°C
Dew Point: 61°F , 16°C
Humidity: 83%
Barometer: 29.85 inHg , 1010.8 hPa
Summary: Light rain
Clouds: Mostly cloudy
Visibility: 10 miles , 16 km
Cloud details: Partly cloudy 6500 ft
Partly cloudy 8500 ft
Mostly cloudy 11000 ft
2019/07/20 13:35 KRNH 201335Z AUTO 03007KT 10SM -RA SCT065 SCT085 BKN110 19/16 A2985 RMK AO2 T01900162
 
KROS - Rush City, Minnesota, USA
Distance from station: NNE 41mi, 66km
Updated: 07/20/2019 8:36am
Clear
Clear
 Wind from calm
Wind: Calm
Temperature: 63°F , 17°C
Dew Point: 57°F , 14°C
Humidity: 83%
Barometer: 29.87 inHg , 1011.5 hPa
Clouds: Clear
Visibility: 10 miles , 16 km
2019/07/20 13:36 KROS 201336Z AUTO 00000KT 10SM CLR 17/14 A2987 RMK AO2 LTG DSNT SE THRU SW T01710137
KSTC - St. Cloud, Minnesota, USA
Distance from station: NW 41mi, 67km
Updated: 07/20/2019 8:53am
Light rain, Overcast
Light rain, Overcast
 Wind from E
Wind: E 6 mph , 9 km/h
Temperature: 64°F , 18°C
Dew Point: 55°F , 13°C
Humidity: 73%
Barometer: 29.90 inHg , 1012.5 hPa
Summary: Light rain
Clouds: Overcast
Visibility: 10 miles , 16 km
Cloud details: Overcast 10000 ft
2019/07/20 13:53 KSTC 201353Z 09005KT 10SM -RA OVC100 18/13 A2990 RMK AO2 LTG DSNT E AND S RAB37 TSB30E45 SLP128 LCL MOV NE P0001 T01780128 $
 
KGYL - Glencoe, Minnesota, USA
Distance from station: SW 46mi, 74km
Updated: 07/20/2019 8:39am
Light rain, Mostly cloudy
Light rain, Mostly cloudy
 Wind from NNE
Wind: NNE 15 mph , 24 km/h, Gust: 25 mph , 41 km/h
Temperature: 63°F , 17°C
Dew Point: 63°F , 17°C
Humidity: 100%
Barometer: 29.82 inHg , 1009.8 hPa
Summary: Light rain
Clouds: Mostly cloudy
Visibility: 10 miles , 16 km
Cloud details: Partly cloudy 1600 ft
Partly cloudy 6500 ft
Mostly cloudy 11000 ft
2019/07/20 13:39 KGYL 201339Z AUTO 03013G22KT 10SM -RA SCT016 SCT065 BKN110 17/17 A2982 RMK AO2 LTG DSNT ALQS P0033 T01700171
KJMR - Mora, Minnesota, USA
Distance from station: N 48mi, 78km
Updated: 07/20/2019 8:36am
Clear
Clear
 Wind from calm
Wind: Calm
Temperature: 64°F , 18°C
Dew Point: 57°F , 14°C
Humidity: 78%
Barometer: 29.89 inHg , 1012.2 hPa
Clouds: Clear
Visibility: 10 miles , 16 km
2019/07/20 13:36 KJMR 201336Z AUTO 00000KT 10SM CLR 18/14 A2989 RMK AO2